帯広空港の過去48時間の天気

帯広空港 (Obihiro)

現在時刻: 10/20 03:40 JST (10/19 18:40 UTC) 以下の時間は現地時間です。

過去48時間のMETAR気象情報
時間 風向 風速(m/s) 視程 気温(℃) 湿度(%) 気圧(hPa) 天気現象
19 20:00 不定 1 10km以上 6 93 1020
19 19:00 2 10km以上 6 93 1019
19 18:00 3 10km以上 7 87 1019
19 17:00 南南東 3 10km以上 8 81 1019
19 16:00 3 10km以上 11 67 1019
19 15:00 南南東 4 10km以上 13 58 1019
19 14:00 南南東 4 10km以上 13 58 1019
19 13:00 南南東 3 10km以上 13 58 1020
19 12:00 2 10km以上 13 58 1020
19 11:00 東南東 2 10km以上 11 62 1021
19 10:00 北東 2 10km以上 9 66 1022
19 09:00 2 10km以上 7 66 1022
19 08:00 北西 2 10km以上 5 75 1022
19 07:40 不定 1 10km以上 4 81 1022
18 20:00 不定 1 10km以上 4 87 1019
18 19:00 北西 3 10km以上 7 70 1018
18 18:00 北北西 6 10km以上 8 66 1018
18 17:00 5 10km以上 9 66 1017
18 16:00 6 10km以上 11 58 1016
18 15:00 9 10km以上 13 51 1015
18 14:00 5 10km以上 13 54 1014
18 13:00 7 10km以上 14 55 1014
18 12:00 3 10km以上 14 47 1014
18 11:00 北北東 3 10km以上 13 47 1014
18 10:00 3 10km以上 12 58 1014
18 09:00 2 10km以上 9 71 1014
18 08:00 2 10km以上 6 76 1014
18 07:40 不定 1 10km以上 5 81 1014
RJCB 191100Z VRB01KT 9999 FEW030 SCT/// 06/05 Q1020
RJCB 191000Z 19003KT 9999 FEW030 06/05 Q1019
RJCB 190900Z 18005KT 9999 FEW030 07/05 Q1019
RJCB 190800Z 16006KT 9999 FEW030 08/05 Q1019
RJCB 190700Z 17006KT 9999 FEW040 11/05 Q1019
RJCB 190600Z 16008KT 130V200 9999 FEW040 13/05 Q1019
RJCB 190500Z 15008KT 110V170 9999 FEW040 13/05 Q1019
RJCB 190400Z 15006KT 120V210 9999 FEW035 13/05 Q1020
RJCB 190300Z 19004KT 100V270 9999 FEW035 13/05 Q1020
RJCB 190200Z 11003KT 060V180 9999 FEW030 11/04 Q1021
RJCB 190100Z 04003KT 310V110 9999 FEW030 09/03 Q1022
RJCB 190000Z 35003KT 270V020 9999 FEW030 07/01 Q1022
RJCB 182300Z 31003KT 9999 FEW030 05/01 Q1022
RJCB 182240Z VRB01KT 9999 FEW030 04/01 Q1022 RMK 1CU030 A3020
RJCB 181100Z VRB01KT 9999 FEW040 04/02 Q1019
RJCB 181000Z 31005KT 9999 FEW040 07/02 Q1018
RJCB 180900Z 34012KT 9999 FEW040 08/02 Q1018
RJCB 180800Z 35010KT 9999 FEW040 09/03 Q1017
RJCB 180700Z 35011KT 9999 FEW040 11/03 Q1016
RJCB 180600Z 35017KT 9999 FEW040 13/03 Q1015
RJCB 180500Z 35010KT 320V020 9999 FEW040 SCT060 13/04 Q1014
RJCB 180400Z 35014KT 9999 FEW040 SCT060 14/05 Q1014
RJCB 180300Z 35005KT 290V070 9999 FEW040 14/03 Q1014
RJCB 180200Z 02005KT 320V080 9999 FEW040 13/02 Q1014
RJCB 180100Z VRB05KT 9999 FEW040 12/04 Q1014
RJCB 180000Z 35004KT 320V040 9999 FEW040 09/04 Q1014
RJCB 172300Z 35004KT 310V050 9999 FEW040 06/02 Q1014
RJCB 172240Z VRB02KT 9999 FEW040 05/02 Q1014 RMK 1CU040 A2995